Time;durP1;ratioP1;P1;durP2;ratioP2;P2;SDS_P1;SDS_P2;PMS_P1;PMS_P2;Temp;Humidity;BMP_temperature;BMP_pressure;BME280_temperature;BME280_humidity;BME280_pressure;Samples;Min_cycle;Max_cycle;Signal;HPM_P1;HPM_P2
2022/07/14 00:00:28;;;;;;;2.88;1.50;;;15.80;99.90;;;;;;5056216;28;20591;-82
2022/07/14 00:02:56;;;;;;;5.88;1.60;;;15.70;99.90;;;;;;5059550;28;20202;-82
2022/07/14 00:05:23;;;;;;;4.78;1.40;;;15.70;99.90;;;;;;5064320;28;20201;-83
2022/07/14 00:07:50;;;;;;;1.90;1.15;;;15.60;99.90;;;;;;5059477;28;20260;-82
2022/07/14 00:10:17;;;;;;;2.72;1.40;;;15.60;99.90;;;;;;5059092;28;20564;-82
2022/07/14 00:12:44;;;;;;;2.72;1.52;;;15.50;99.90;;;;;;5059321;28;20272;-82
2022/07/14 00:15:11;;;;;;;4.80;1.48;;;15.50;99.90;;;;;;5058440;28;20220;-82
2022/07/14 00:17:38;;;;;;;3.38;1.30;;;15.50;99.90;;;;;;5054221;28;20288;-83
2022/07/14 00:20:07;;;;;;;2.67;1.02;;;15.50;99.90;;;;;;5054458;28;20202;-82
2022/07/14 00:22:34;;;;;;;5.20;1.60;;;15.50;99.90;;;;;;5054554;28;20202;-83
2022/07/14 00:25:02;;;;;;;2.88;1.00;;;15.40;99.90;;;;;;5045776;28;20206;-82
2022/07/14 00:27:29;;;;;;;2.00;1.08;;;15.40;99.90;;;;;;5035844;28;20228;-80
2022/07/14 00:29:56;;;;;;;2.42;1.13;;;15.40;99.90;;;;;;5039525;28;20297;-81
2022/07/14 00:32:23;;;;;;;4.93;1.40;;;15.40;99.90;;;;;;5055918;28;20224;-82
2022/07/14 00:34:50;;;;;;;3.13;1.50;;;15.30;99.90;;;;;;5059283;28;20213;-83
2022/07/14 00:37:18;;;;;;;4.15;1.50;;;15.30;99.90;;;;;;5060649;28;20212;-82
2022/07/14 00:39:58;;;;;;;2.60;1.60;;;15.30;99.90;;;;;;5056392;28;20212;-82
2022/07/14 00:42:34;;;;;;;2.90;1.40;;;15.30;99.90;;;;;;5061815;28;20298;-83
2022/07/14 00:45:03;;;;;;;2.97;1.60;;;15.20;99.90;;;;;;5060686;28;20204;-82
2022/07/14 00:47:30;;;;;;;4.22;1.73;;;15.20;99.90;;;;;;5060542;28;20202;-82
2022/07/14 00:49:57;;;;;;;3.38;1.33;;;15.20;99.90;;;;;;5060107;28;20210;-83
2022/07/14 00:52:27;;;;;;;4.63;1.40;;;15.20;99.90;;;;;;5060198;28;20193;-81
2022/07/14 00:54:55;;;;;;;2.20;1.27;;;15.10;99.90;;;;;;5058223;28;20213;-81
2022/07/14 00:57:22;;;;;;;1.63;1.23;;;15.10;99.90;;;;;;5057416;28;20759;-82
2022/07/14 00:59:50;;;;;;;2.67;1.40;;;15.00;99.90;;;;;;5053334;28;20225;-82
2022/07/14 01:02:18;;;;;;;3.95;1.50;;;15.00;99.90;;;;;;5053768;28;20202;-81
2022/07/14 01:04:46;;;;;;;2.95;1.40;;;14.90;99.90;;;;;;5051174;28;20201;-83
2022/07/14 01:07:13;;;;;;;3.42;1.55;;;14.90;99.90;;;;;;5052015;28;20198;-83
2022/07/14 01:09:42;;;;;;;2.20;1.25;;;14.80;99.90;;;;;;5053546;28;20198;-83
2022/07/14 01:12:10;;;;;;;2.38;1.52;;;14.80;99.90;;;;;;5052924;28;20503;-82
2022/07/14 01:14:38;;;;;;;3.08;1.45;;;14.80;99.90;;;;;;5053420;28;20292;-82
2022/07/14 01:17:06;;;;;;;5.35;1.63;;;14.70;99.90;;;;;;5046989;28;20526;-81
2022/07/14 01:19:34;;;;;;;3.38;1.50;;;14.60;99.90;;;;;;5033426;28;20238;-82
2022/07/14 01:22:02;;;;;;;3.53;1.70;;;14.60;99.90;;;;;;5033142;28;20195;-82
2022/07/14 01:24:30;;;;;;;3.70;1.25;;;14.60;99.90;;;;;;5033099;28;20209;-82
2022/07/14 01:26:57;;;;;;;1.83;1.42;;;14.60;99.90;;;;;;5033900;28;20199;-81
2022/07/14 01:29:25;;;;;;;5.28;2.00;;;14.50;99.90;;;;;;5033496;28;20221;-83
2022/07/14 01:31:52;;;;;;;2.35;1.33;;;14.50;99.90;;;;;;5033002;28;20201;-82
2022/07/14 01:34:19;;;;;;;4.13;1.40;;;14.40;99.90;;;;;;5032603;28;20202;-81
2022/07/14 01:36:46;;;;;;;2.97;1.30;;;14.40;99.90;;;;;;5032778;28;20739;-82
2022/07/14 01:39:15;;;;;;;3.17;1.30;;;14.40;99.90;;;;;;5040795;28;20206;-82
2022/07/14 01:41:42;;;;;;;3.97;1.67;;;14.30;99.90;;;;;;5051639;28;20205;-83
2022/07/14 01:44:10;;;;;;;4.15;1.92;;;14.30;99.90;;;;;;5056856;28;20217;-83
2022/07/14 01:46:37;;;;;;;2.83;1.20;;;14.30;99.90;;;;;;5059856;28;20222;-82
2022/07/14 01:49:04;;;;;;;2.07;1.17;;;14.30;99.90;;;;;;5063763;28;20198;-82
2022/07/14 01:51:31;;;;;;;3.27;1.40;;;14.20;99.90;;;;;;5063275;28;20265;-82
2022/07/14 01:53:58;;;;;;;4.37;1.60;;;14.20;99.90;;;;;;5064970;28;20265;-83
2022/07/14 01:56:26;;;;;;;2.47;1.40;;;14.20;99.90;;;;;;5065426;28;20308;-82
2022/07/14 01:58:53;;;;;;;3.63;1.40;;;14.10;99.90;;;;;;5048525;28;20289;-82
2022/07/14 02:04:06;;;;;;;7.28;2.00;;;14.00;99.90;;;;;;5047852;28;20208;-82
2022/07/14 02:06:33;;;;;;;4.47;1.47;;;14.00;99.90;;;;;;5057189;28;20396;-82
2022/07/14 02:09:00;;;;;;;4.87;2.00;;;13.90;99.90;;;;;;5056633;28;20284;-82
2022/07/14 02:14:12;;;;;;;3.67;1.57;;;13.70;99.90;;;;;;5055312;28;20204;-82
2022/07/14 02:16:39;;;;;;;1.93;1.27;;;13.70;99.90;;;;;;5055993;28;20220;-82
2022/07/14 02:19:07;;;;;;;3.73;1.40;;;13.60;99.90;;;;;;5054989;28;20237;-81
2022/07/14 02:21:33;;;;;;;4.40;1.70;;;13.60;99.90;;;;;;5056314;28;20258;-81
2022/07/14 02:24:00;;;;;;;3.00;1.60;;;13.60;99.90;;;;;;5056129;28;20489;-82
2022/07/14 02:26:28;;;;;;;4.30;1.60;;;13.60;99.90;;;;;;5055442;28;20202;-82
2022/07/14 02:28:55;;;;;;;3.23;1.37;;;13.60;99.90;;;;;;5056375;28;20198;-82
2022/07/14 02:31:22;;;;;;;2.37;1.40;;;13.60;99.90;;;;;;5055355;28;20228;-82
2022/07/14 02:33:49;;;;;;;1.70;1.30;;;13.60;99.90;;;;;;5055945;28;20470;-82
2022/07/14 02:36:17;;;;;;;3.27;1.40;;;13.60;99.90;;;;;;5055823;28;20236;-82
2022/07/14 02:38:44;;;;;;;2.37;1.33;;;13.60;99.90;;;;;;5054590;28;20206;-82
2022/07/14 02:41:12;;;;;;;1.43;1.30;;;13.50;99.90;;;;;;5056058;28;20572;-81
2022/07/14 02:43:40;;;;;;;1.73;1.13;;;13.50;99.90;;;;;;5055444;28;20214;-82
2022/07/14 02:46:07;;;;;;;2.60;1.30;;;13.50;99.90;;;;;;5054724;28;20256;-82
2022/07/14 02:48:34;;;;;;;3.57;1.30;;;13.50;99.90;;;;;;5055648;28;20198;-81
2022/07/14 02:51:01;;;;;;;1.47;1.10;;;13.50;99.90;;;;;;5035887;28;20210;-81
2022/07/14 02:53:29;;;;;;;1.92;1.30;;;13.50;99.90;;;;;;5034975;28;20203;-82
2022/07/14 02:55:56;;;;;;;4.20;1.40;;;13.50;99.90;;;;;;5052329;28;20316;-82
2022/07/14 02:58:25;;;;;;;4.30;1.63;;;13.40;99.90;;;;;;5055487;28;20273;-81
2022/07/14 03:00:54;;;;;;;2.23;1.43;;;13.40;99.90;;;;;;5054663;28;20629;-82
2022/07/14 03:03:21;;;;;;;2.63;1.30;;;13.40;99.90;;;;;;5055230;28;20210;-81
2022/07/14 03:05:48;;;;;;;1.87;1.40;;;13.40;99.90;;;;;;5054901;28;20205;-81
2022/07/14 03:08:16;;;;;;;2.80;1.40;;;13.30;99.90;;;;;;5054967;28;20197;-82
2022/07/14 03:10:43;;;;;;;2.10;1.30;;;13.30;99.90;;;;;;5053926;28;20198;-79
2022/07/14 03:13:10;;;;;;;4.80;1.47;;;13.30;99.90;;;;;;5055055;28;20194;-82
2022/07/14 03:15:38;;;;;;;4.77;2.20;;;13.30;99.90;;;;;;5055305;28;20204;-82
2022/07/14 03:18:06;;;;;;;3.07;1.40;;;13.30;99.90;;;;;;5054057;28;20253;-81
2022/07/14 03:20:33;;;;;;;1.97;1.27;;;13.30;99.90;;;;;;5053804;28;20256;-82
2022/07/14 03:23:00;;;;;;;3.63;1.50;;;13.30;99.90;;;;;;5054786;28;20198;-81
2022/07/14 03:25:27;;;;;;;3.23;1.63;;;13.20;99.90;;;;;;5054377;28;20296;-82
2022/07/14 03:27:54;;;;;;;2.73;1.50;;;13.20;99.90;;;;;;5054587;28;20221;-80
2022/07/14 03:30:21;;;;;;;2.10;1.33;;;13.20;99.90;;;;;;5054569;28;20221;-82
2022/07/14 03:32:48;;;;;;;1.93;1.30;;;13.10;99.90;;;;;;5054616;28;20271;-81
2022/07/14 03:35:16;;;;;;;3.63;1.50;;;13.10;99.90;;;;;;5054179;28;20199;-81
2022/07/14 03:37:44;;;;;;;2.50;1.53;;;13.10;99.90;;;;;;5053854;28;20218;-81
2022/07/14 03:40:12;;;;;;;3.13;1.83;;;13.10;99.90;;;;;;5051139;28;20202;-81
2022/07/14 03:42:39;;;;;;;3.03;1.50;;;13.10;99.90;;;;;;5054011;28;20224;-81
2022/07/14 03:45:07;;;;;;;4.90;1.70;;;13.10;99.90;;;;;;5054396;28;20212;-81
2022/07/14 03:47:34;;;;;;;1.67;1.47;;;13.10;99.90;;;;;;5046396;28;20664;-80
2022/07/14 03:50:01;;;;;;;3.70;1.63;;;13.10;99.90;;;;;;5051196;28;20882;-80
2022/07/14 03:52:29;;;;;;;3.27;1.83;;;13.10;99.90;;;;;;5054288;28;20190;-82
2022/07/14 03:54:56;;;;;;;4.90;2.00;;;13.10;99.90;;;;;;5054090;28;20285;-81
2022/07/14 03:57:23;;;;;;;2.63;1.50;;;13.10;99.90;;;;;;5044236;28;20261;-81
2022/07/14 03:59:50;;;;;;;2.90;1.50;;;13.10;99.90;;;;;;5036343;28;20610;-81
2022/07/14 04:02:17;;;;;;;2.37;1.27;;;13.10;99.90;;;;;;5034894;28;20209;-81
2022/07/14 04:04:44;;;;;;;3.20;1.53;;;13.10;99.90;;;;;;5050833;28;20205;-81
2022/07/14 04:07:11;;;;;;;3.33;1.60;;;13.10;99.90;;;;;;5039602;28;20213;-80
2022/07/14 04:09:39;;;;;;;1.63;1.30;;;13.10;99.90;;;;;;5052156;28;20309;-81
2022/07/14 04:12:06;;;;;;;1.43;1.30;;;13.10;99.90;;;;;;5047029;28;20565;-80
2022/07/14 04:14:33;;;;;;;2.07;1.30;;;13.10;99.90;;;;;;5041765;28;20212;-81
2022/07/14 04:17:00;;;;;;;3.27;1.40;;;13.10;99.90;;;;;;5048046;28;20625;-81
2022/07/14 04:19:27;;;;;;;4.83;1.50;;;13.10;99.90;;;;;;5053516;28;20287;-81
2022/07/14 04:21:54;;;;;;;3.73;1.27;;;13.20;99.90;;;;;;5054027;28;20200;-81
2022/07/14 04:24:21;;;;;;;2.57;1.40;;;13.20;99.90;;;;;;5052371;28;20205;-81
2022/07/14 04:26:49;;;;;;;2.25;1.20;;;13.30;99.90;;;;;;5053954;28;20308;-81
2022/07/14 04:29:16;;;;;;;3.10;1.90;;;13.30;99.90;;;;;;5053853;28;20632;-81
2022/07/14 04:31:43;;;;;;;3.30;1.30;;;13.30;99.90;;;;;;5053476;28;20205;-81
2022/07/14 04:34:10;;;;;;;2.53;1.50;;;13.30;99.90;;;;;;5050543;28;20202;-82
2022/07/14 04:36:37;;;;;;;2.80;1.40;;;13.30;99.90;;;;;;5040205;28;20246;-81
2022/07/14 04:39:06;;;;;;;1.97;1.43;;;13.40;99.90;;;;;;5033177;28;20203;-81
2022/07/14 04:41:36;;;;;;;1.90;1.23;;;13.40;99.90;;;;;;5033509;28;20209;-82
2022/07/14 04:44:04;;;;;;;2.63;1.40;;;13.40;99.90;;;;;;5033046;28;20348;-81
2022/07/14 04:46:31;;;;;;;1.60;1.50;;;13.50;99.90;;;;;;5033001;28;20233;-80
2022/07/14 04:54:27;;;;;;;1.97;1.83;;;13.60;99.90;;;;;;5047901;28;20201;-81
2022/07/14 04:56:54;;;;;;;2.23;1.60;;;13.70;99.90;;;;;;5053149;28;20232;-81
2022/07/14 04:59:22;;;;;;;1.70;1.60;;;13.70;99.90;;;;;;5051964;28;20197;-81
2022/07/14 05:01:49;;;;;;;4.70;1.73;;;13.70;99.90;;;;;;5052517;28;20205;-81
2022/07/14 05:04:16;;;;;;;2.00;1.70;;;13.80;99.90;;;;;;5052895;28;20194;-82
2022/07/14 05:06:45;;;;;;;3.30;1.67;;;13.80;99.90;;;;;;5042373;28;20484;-82
2022/07/14 05:09:13;;;;;;;3.40;2.00;;;13.90;99.90;;;;;;5033280;28;20290;-81
2022/07/14 05:11:40;;;;;;;4.60;1.95;;;13.90;99.90;;;;;;5033300;28;20289;-81
2022/07/14 05:14:07;;;;;;;3.00;1.88;;;14.00;99.90;;;;;;5038478;28;20323;-81
2022/07/14 05:16:35;;;;;;;2.47;1.70;;;14.10;99.90;;;;;;5038361;28;20726;-80
2022/07/14 05:19:02;;;;;;;2.65;1.80;;;14.20;99.90;;;;;;5032175;28;20239;-82
2022/07/14 05:21:30;;;;;;;2.27;1.50;;;14.20;99.90;;;;;;5032643;28;20195;-82
2022/07/14 05:23:57;;;;;;;4.47;1.42;;;14.30;99.90;;;;;;5032740;28;20252;-81
2022/07/14 05:26:24;;;;;;;1.30;1.10;;;14.40;99.90;;;;;;5048996;28;20267;-82
2022/07/14 05:28:52;;;;;;;4.38;1.65;;;14.50;99.90;;;;;;5052365;28;20190;-81
2022/07/14 05:31:18;;;;;;;3.10;1.48;;;14.70;99.90;;;;;;5052491;28;20198;-82
2022/07/14 05:33:47;;;;;;;2.28;1.30;;;14.80;99.90;;;;;;5051938;28;20229;-82
2022/07/14 05:36:14;;;;;;;5.57;1.80;;;15.00;99.90;;;;;;5052454;28;20205;-82
2022/07/14 05:38:41;;;;;;;5.95;1.70;;;15.20;99.90;;;;;;5053009;28;20399;-81
2022/07/14 05:41:08;;;;;;;9.38;1.60;;;15.50;99.90;;;;;;5051785;28;20542;-81
2022/07/14 05:43:35;;;;;;;2.45;1.30;;;15.80;99.90;;;;;;5052580;28;20224;-82
2022/07/14 05:46:06;;;;;;;5.95;1.40;;;16.10;99.90;;;;;;5051195;28;20252;-82
2022/07/14 05:48:33;;;;;;;5.40;1.83;;;16.40;99.90;;;;;;5051991;28;20230;-83
2022/07/14 05:51:06;;;;;;;1.92;1.13;;;16.70;99.90;;;;;;5052051;28;20214;-82
2022/07/14 05:53:33;;;;;;;4.50;1.27;;;17.00;99.90;;;;;;5052001;28;20720;-82
2022/07/14 05:56:01;;;;;;;4.13;1.40;;;17.30;99.90;;;;;;5052597;28;20194;-82
2022/07/14 05:58:28;;;;;;;4.95;1.30;;;17.60;99.90;;;;;;5051964;28;20649;-83
2022/07/14 06:00:55;;;;;;;6.47;1.40;;;17.90;99.90;;;;;;5052599;28;20645;-82
2022/07/14 06:03:22;;;;;;;4.78;1.38;;;18.20;99.90;;;;;;5052530;28;20206;-82
2022/07/14 06:05:49;;;;;;;4.72;1.70;;;18.50;99.90;;;;;;5039399;28;20214;-83
2022/07/14 06:08:17;;;;;;;5.00;1.17;;;18.80;99.90;;;;;;5032404;28;20195;-83
2022/07/14 06:10:44;;;;;;;6.10;1.30;;;19.10;99.90;;;;;;5032944;28;20194;-81
2022/07/14 06:13:12;;;;;;;5.20;1.20;;;19.20;99.90;;;;;;5033536;28;20260;-83
2022/07/14 06:15:39;;;;;;;5.13;1.30;;;19.60;99.90;;;;;;5046564;28;20213;-84
2022/07/14 06:18:06;;;;;;;2.75;1.20;;;19.90;98.80;;;;;;5047293;28;20252;-85
2022/07/14 06:20:33;;;;;;;2.05;0.80;;;20.10;75.10;;;;;;5052293;28;20198;-82
2022/07/14 06:23:00;;;;;;;4.55;1.20;;;20.30;89.10;;;;;;5052603;28;20309;-83
2022/07/14 06:25:28;;;;;;;4.50;1.10;;;20.40;76.70;;;;;;5052998;28;20194;-84
2022/07/14 06:27:55;;;;;;;5.00;1.42;;;20.80;42.40;;;;;;5051549;28;20204;-83
2022/07/14 06:30:22;;;;;;;4.88;1.20;;;20.90;25.60;;;;;;5055018;28;20560;-83
2022/07/14 06:32:49;;;;;;;4.63;1.55;;;21.20;12.70;;;;;;5055906;28;20516;-82
2022/07/14 06:35:15;;;;;;;5.15;1.10;;;21.40;1.00;;;;;;5051760;28;20209;-84
2022/07/14 06:37:42;;;;;;;5.50;1.30;;;21.60;1.00;;;;;;5055652;28;20510;-82
2022/07/14 06:40:10;;;;;;;8.02;1.38;;;21.80;1.00;;;;;;5055130;28;20202;-83
2022/07/14 06:42:38;;;;;;;1.90;0.77;;;21.90;1.00;;;;;;5046956;28;20226;-85
2022/07/14 06:45:06;;;;;;;5.43;1.50;;;22.20;1.00;;;;;;5035453;28;20207;-87
2022/07/14 06:47:33;;;;;;;2.70;1.05;;;22.20;1.00;;;;;;5040972;28;20212;-85
2022/07/14 06:50:00;;;;;;;3.15;1.17;;;22.40;1.00;;;;;;5056270;28;20190;-83
2022/07/14 06:52:27;;;;;;;3.50;1.55;;;22.70;1.00;;;;;;5056204;28;20204;-85
2022/07/14 06:54:56;;;;;;;3.50;1.30;;;22.90;1.00;;;;;;5057231;28;20206;-84
2022/07/14 06:57:23;;;;;;;4.70;1.40;;;23.10;1.00;;;;;;5056690;28;20221;-89
2022/07/14 06:59:52;;;;;;;4.13;1.13;;;23.30;1.00;;;;;;5055433;28;20213;-85
2022/07/14 07:02:19;;;;;;;3.10;1.30;;;23.60;1.00;;;;;;5056805;28;20204;-87
2022/07/14 07:04:46;;;;;;;4.85;1.20;;;23.70;99.90;;;;;;5056648;28;20197;-87
2022/07/14 07:07:12;;;;;;;3.35;1.00;;;23.70;99.90;;;;;;5056339;28;20205;-84
2022/07/14 07:09:39;;;;;;;4.78;1.15;;;23.80;99.90;;;;;;5054960;28;20193;-83
2022/07/14 07:12:06;;;;;;;3.45;1.00;;;23.90;99.90;;;;;;5055738;28;20197;-85
2022/07/14 07:14:33;;;;;;;4.75;1.20;;;24.00;99.90;;;;;;5053687;28;20194;-84
2022/07/14 07:17:02;;;;;;;3.85;0.80;;;24.20;99.90;;;;;;5034765;28;20325;-83
2022/07/14 07:19:29;;;;;;;3.30;0.98;;;24.20;99.90;;;;;;5043284;28;20246;-85
2022/07/14 07:21:57;;;;;;;5.32;1.10;;;24.40;99.90;;;;;;5054223;28;20273;-82
2022/07/14 07:24:24;;;;;;;3.17;1.00;;;24.70;1.00;;;;;;5053484;28;20275;-81
2022/07/14 07:26:51;;;;;;;1.83;1.08;;;25.00;99.90;;;;;;5052174;28;20224;-84
2022/07/14 07:29:17;;;;;;;5.68;1.17;;;25.20;1.00;;;;;;5053705;28;20213;-85
2022/07/14 07:31:44;;;;;;;7.70;1.27;;;25.10;1.00;;;;;;5052875;28;20613;-86
2022/07/14 07:34:13;;;;;;;4.57;0.98;;;25.00;99.90;;;;;;5052101;28;20224;-84
2022/07/14 07:36:40;;;;;;;4.13;1.20;;;25.20;1.00;;;;;;5054664;28;20209;-84
2022/07/14 07:39:07;;;;;;;2.53;1.10;;;25.40;1.00;;;;;;5054353;28;20218;-85
2022/07/14 07:41:40;;;;;;;2.05;0.68;;;25.50;1.00;;;;;;5054706;28;20197;-82
2022/07/14 07:44:08;;;;;;;3.83;0.85;;;25.50;99.90;;;;;;5055041;28;20222;-85
2022/07/14 07:46:35;;;;;;;2.17;0.70;;;25.70;1.00;;;;;;5055071;28;20593;-84
2022/07/14 07:49:01;;;;;;;2.90;0.95;;;25.90;1.00;;;;;;5053185;28;20198;-83
2022/07/14 07:51:30;;;;;;;7.75;1.58;;;26.10;1.00;;;;;;5053617;28;20508;-83
2022/07/14 07:53:57;;;;;;;2.38;0.70;;;26.20;99.90;;;;;;5054999;28;20289;-88
2022/07/14 07:56:23;;;;;;;4.93;1.13;;;26.20;99.90;;;;;;5040321;28;20277;-85
2022/07/14 07:58:50;;;;;;;2.80;1.08;;;26.30;1.00;;;;;;5047704;28;20249;-84
2022/07/14 08:01:17;;;;;;;4.38;1.00;;;26.20;1.00;;;;;;5054095;28;20676;-83
2022/07/14 08:03:44;;;;;;;5.05;1.20;;;26.00;1.00;;;;;;5053656;28;20539;-82
2022/07/14 08:06:12;;;;;;;6.00;1.20;;;25.60;1.00;;;;;;5054927;28;20194;-84
2022/07/14 08:08:40;;;;;;;3.30;0.80;;;25.40;1.00;;;;;;5054426;28;20204;-84
2022/07/14 08:11:07;;;;;;;3.88;1.05;;;25.40;1.00;;;;;;5053966;28;20210;-86
2022/07/14 08:13:34;;;;;;;3.47;0.95;;;25.60;1.00;;;;;;5054370;28;20280;-85
2022/07/14 08:16:01;;;;;;;4.40;1.10;;;25.70;99.90;;;;;;5054043;28;20202;-83
2022/07/14 08:18:28;;;;;;;3.58;1.23;;;26.10;12.90;;;;;;5052961;28;20233;-81
2022/07/14 08:20:55;;;;;;;3.47;1.02;;;26.30;99.90;;;;;;5053765;28;20586;-84
2022/07/14 08:23:21;;;;;;;3.17;0.82;;;26.50;1.00;;;;;;5053647;28;20205;-84
2022/07/14 08:25:50;;;;;;;1.58;0.65;;;26.70;1.00;;;;;;5052154;28;20204;-83
2022/07/14 08:28:18;;;;;;;2.15;0.90;;;26.80;34.40;;;;;;5053793;28;20212;-83
2022/07/14 08:30:45;;;;;;;2.78;0.90;;;26.80;99.90;;;;;;5055064;28;20233;-85
2022/07/14 08:33:12;;;;;;;3.95;0.90;;;26.90;1.00;;;;;;5053833;28;20281;-83
2022/07/14 08:35:39;;;;;;;3.50;0.65;;;27.00;1.00;;;;;;5053046;28;20209;-83
2022/07/14 08:38:06;;;;;;;3.25;0.80;;;27.30;1.00;;;;;;5053043;28;20224;-84
2022/07/14 08:40:36;;;;;;;2.45;0.77;;;27.50;53.50;;;;;;5054182;28;20273;-87
2022/07/14 08:43:04;;;;;;;2.88;1.00;;;27.50;1.00;;;;;;5053639;28;20227;-82
2022/07/14 08:45:40;;;;;;;3.47;0.98;;;27.70;1.00;;;;;;5054080;28;20208;-84
2022/07/14 08:48:09;;;;;;;2.58;1.00;;;27.70;1.00;;;;;;5053128;28;20582;-84
2022/07/14 08:50:37;;;;;;;2.20;0.73;;;27.70;1.00;;;;;;5053858;28;20202;-84
2022/07/14 08:53:04;;;;;;;2.88;1.13;;;28.00;1.00;;;;;;5052338;28;20206;-82
2022/07/14 08:55:32;;;;;;;2.83;0.82;;;28.00;1.00;;;;;;5054106;28;20201;-84
2022/07/14 08:57:59;;;;;;;4.00;1.20;;;28.10;40.10;;;;;;5053269;28;20647;-85
2022/07/14 09:00:28;;;;;;;2.22;0.90;;;28.20;99.90;;;;;;5053320;28;20205;-86
2022/07/14 09:02:56;;;;;;;4.65;0.80;;;27.70;1.00;;;;;;5054100;28;20208;-84
2022/07/14 09:05:23;;;;;;;2.75;0.80;;;27.40;1.00;;;;;;5053282;28;20194;-87
2022/07/14 09:07:56;;;;;;;3.50;1.00;;;27.20;1.00;;;;;;5053642;28;20206;-86
2022/07/14 09:10:26;;;;;;;2.97;0.98;;;26.80;1.00;;;;;;5053913;28;20286;-85
2022/07/14 09:13:09;;;;;;;2.83;0.65;;;26.70;1.00;;;;;;5053445;28;20205;-86
2022/07/14 09:15:47;;;;;;;2.17;0.68;;;26.50;99.90;;;;;;5054031;28;20661;-83
2022/07/14 09:18:20;;;;;;;1.83;0.80;;;26.50;99.90;;;;;;5052662;28;20247;-81
2022/07/14 09:20:47;;;;;;;4.57;0.80;;;26.30;99.90;;;;;;5053948;28;20221;-85
2022/07/14 09:23:14;;;;;;;3.80;1.05;;;26.30;99.90;;;;;;5040974;28;20209;-85
2022/07/14 09:25:42;;;;;;;2.83;1.00;;;26.30;99.90;;;;;;5034177;28;20281;-86
2022/07/14 09:28:09;;;;;;;2.95;1.00;;;25.60;1.00;;;;;;5034560;28;20191;-85
2022/07/14 09:30:36;;;;;;;2.55;1.02;;;25.30;99.90;;;;;;5045041;28;20212;-87
2022/07/14 09:33:05;;;;;;;3.63;0.88;;;25.20;99.90;;;;;;5053798;28;20194;-87
2022/07/14 09:35:42;;;;;;;1.63;0.80;;;25.20;99.90;;;;;;5054093;28;20208;-82
2022/07/14 09:38:17;;;;;;;5.57;1.20;;;25.10;99.90;;;;;;5045264;28;20500;-86
2022/07/14 09:40:45;;;;;;;2.67;0.80;;;25.00;1.00;;;;;;5042763;28;20280;-87
2022/07/14 09:43:13;;;;;;;1.75;0.70;;;24.80;99.90;;;;;;5046052;28;20229;-84
2022/07/14 09:45:43;;;;;;;3.63;1.05;;;24.80;1.00;;;;;;5040480;28;20281;-85
2022/07/14 09:48:13;;;;;;;2.22;0.88;;;24.80;99.90;;;;;;5049878;28;20221;-85
2022/07/14 09:50:45;;;;;;;3.55;1.02;;;24.70;99.90;;;;;;5053831;28;20202;-81
2022/07/14 09:53:26;;;;;;;3.85;1.02;;;24.50;99.90;;;;;;5052914;28;20217;-81
2022/07/14 09:55:58;;;;;;;2.90;1.00;;;24.60;99.90;;;;;;5053663;28;20276;-85
2022/07/14 09:58:27;;;;;;;2.00;0.82;;;24.40;99.90;;;;;;5052920;28;20221;-82
2022/07/14 10:00:56;;;;;;;3.03;0.95;;;24.40;99.90;;;;;;5053278;28;20201;-83
2022/07/14 10:03:26;;;;;;;2.70;0.90;;;24.40;1.00;;;;;;5053428;28;20914;-84
2022/07/14 10:05:54;;;;;;;4.65;1.02;;;24.30;99.90;;;;;;5057206;28;20563;-86
2022/07/14 10:08:24;;;;;;;8.68;1.50;;;24.10;99.90;;;;;;5055176;28;20286;-88
2022/07/14 10:10:52;;;;;;;4.13;1.10;;;24.20;99.90;;;;;;5057310;28;20214;-86
2022/07/14 10:13:20;;;;;;;2.95;0.88;;;24.30;99.90;;;;;;5057417;28;20212;-87
2022/07/14 10:15:49;;;;;;;1.58;0.68;;;24.40;39.60;;;;;;5057779;28;20213;-85
2022/07/14 10:18:17;;;;;;;2.33;0.80;;;24.30;50.90;;;;;;5057734;28;20275;-87
2022/07/14 10:20:48;;;;;;;2.33;0.60;;;24.10;75.10;;;;;;5056924;28;20299;-86
2022/07/14 10:23:15;;;;;;;3.65;1.05;;;23.90;99.90;;;;;;5057260;28;20205;-87
2022/07/14 10:25:43;;;;;;;6.35;0.88;;;23.80;99.90;;;;;;5057932;28;20224;-87
2022/07/14 10:28:11;;;;;;;1.05;0.68;;;23.80;99.90;;;;;;5053415;28;20200;-84
2022/07/14 10:30:44;;;;;;;2.10;0.80;;;23.50;1.00;;;;;;5045392;28;20206;-87
2022/07/14 10:33:19;;;;;;;1.75;0.82;;;23.50;1.00;;;;;;5047028;28;20297;-86
2022/07/14 10:36:04;;;;;;;2.95;1.10;;;23.40;1.00;;;;;;5042881;28;20194;-89
2022/07/14 10:38:53;;;;;;;2.78;1.02;;;23.40;1.00;;;;;;5049094;28;20230;-88
2022/07/14 10:41:44;;;;;;;3.33;0.85;;;23.60;1.00;;;;;;5051786;28;20205;-85
2022/07/14 10:44:17;;;;;;;6.25;1.05;;;23.70;1.00;;;;;;5036915;28;20656;-86
2022/07/14 10:46:46;;;;;;;4.32;1.20;;;23.80;99.90;;;;;;5039864;28;20300;-84
2022/07/14 10:49:15;;;;;;;2.97;0.90;;;23.80;1.00;;;;;;5037208;28;20230;-85
2022/07/14 10:51:48;;;;;;;3.42;0.93;;;24.00;1.00;;;;;;5036536;28;20194;-84
2022/07/14 10:54:17;;;;;;;3.97;1.00;;;24.10;99.90;;;;;;5040550;28;20208;-85
2022/07/14 10:56:45;;;;;;;2.85;0.90;;;24.20;99.90;;;;;;5040547;28;20203;-85
2022/07/14 10:59:32;;;;;;;3.60;1.00;;;24.40;99.90;;;;;;5036740;28;20277;-85
2022/07/14 11:02:27;;;;;;;3.67;0.90;;;24.60;46.60;;;;;;5036552;28;20206;-85
2022/07/14 11:05:02;;;;;;;2.95;0.85;;;24.40;92.60;;;;;;5038291;28;20198;-83
2022/07/14 11:07:40;;;;;;;4.05;1.13;;;24.40;99.90;;;;;;5056009;28;20209;-84
2022/07/14 11:11:00;;;;;;;4.13;0.82;;;24.10;1.00;;;;;;5055351;28;20602;-85
2022/07/14 11:13:27;;;;;;;4.40;1.15;;;23.90;99.90;;;;;;5055703;28;20208;-84
2022/07/14 11:15:56;;;;;;;3.92;1.20;;;24.00;99.90;;;;;;5055440;28;20205;-83
2022/07/14 11:18:35;;;;;;;3.05;0.82;;;23.90;99.90;;;;;;5055322;28;20242;-88
2022/07/14 11:21:06;;;;;;;2.28;0.68;;;24.00;1.00;;;;;;5056243;28;20243;-82
2022/07/14 11:23:37;;;;;;;3.55;0.70;;;24.00;1.00;;;;;;5054711;28;20243;-84
2022/07/14 11:26:06;;;;;;;2.65;1.10;;;24.10;1.00;;;;;;5055135;28;20872;-84
2022/07/14 11:28:42;;;;;;;1.38;0.50;;;24.10;1.00;;;;;;5055745;28;20187;-86
2022/07/14 11:31:14;;;;;;;1.52;0.63;;;24.20;1.00;;;;;;5035060;28;20260;-83
2022/07/14 11:36:29;;;;;;;1.92;0.50;;;24.10;1.00;;;;;;5047380;28;20197;-85
2022/07/14 11:39:24;;;;;;;2.75;0.50;;;24.30;1.00;;;;;;5054985;28;20226;-86
2022/07/14 11:42:02;;;;;;;1.52;0.55;;;24.50;1.00;;;;;;5046494;28;20213;-87
2022/07/14 11:44:44;;;;;;;1.83;0.65;;;24.80;1.00;;;;;;5036472;28;20211;-86
2022/07/14 11:47:17;;;;;;;0.82;0.47;;;25.00;1.00;;;;;;5034518;28;20210;-87
2022/07/14 11:49:55;;;;;;;1.65;0.70;;;25.10;1.00;;;;;;5035072;28;20195;-88
2022/07/14 11:52:32;;;;;;;2.85;0.65;;;25.20;1.00;;;;;;5034528;28;20198;-86
2022/07/14 11:55:03;;;;;;;2.10;0.50;;;25.20;1.00;;;;;;5050309;28;20220;-85
2022/07/14 11:57:30;;;;;;;2.47;0.77;;;25.30;1.00;;;;;;5055642;28;20276;-88
2022/07/14 12:00:03;;;;;;;1.30;0.47;;;25.20;1.00;;;;;;5054866;28;20232;-86
2022/07/14 12:02:30;;;;;;;2.30;0.65;;;25.20;1.00;;;;;;5055581;28;20205;-85
2022/07/14 12:05:00;;;;;;;1.48;0.63;;;25.10;1.00;;;;;;5055578;28;20198;-87
2022/07/14 12:07:43;;;;;;;1.58;0.70;;;25.10;1.00;;;;;;5054660;28;20202;-88
2022/07/14 12:10:13;;;;;;;4.63;0.80;;;25.20;1.00;;;;;;5055483;28;20198;-87
2022/07/14 12:12:41;;;;;;;3.30;0.90;;;25.30;1.00;;;;;;5055373;28;20214;-87
2022/07/14 12:15:11;;;;;;;2.53;0.80;;;25.50;1.00;;;;;;5055548;28;20248;-88
2022/07/14 12:17:48;;;;;;;2.80;0.65;;;25.30;1.00;;;;;;5054372;28;20335;-87
2022/07/14 12:20:15;;;;;;;1.63;0.70;;;25.30;1.00;;;;;;5054888;28;20474;-87
2022/07/14 12:22:44;;;;;;;1.92;0.70;;;25.30;1.00;;;;;;5054204;28;20212;-82
2022/07/14 12:25:27;;;;;;;2.55;0.95;;;25.30;1.00;;;;;;5053705;28;20209;-82
2022/07/14 12:27:55;;;;;;;1.67;0.57;;;25.40;1.00;;;;;;5054130;28;20838;-83
2022/07/14 12:30:22;;;;;;;1.40;0.40;;;25.50;1.00;;;;;;5052869;28;20289;-84
2022/07/14 12:32:53;;;;;;;3.40;0.75;;;25.70;1.00;;;;;;5054080;28;20204;-83
2022/07/14 12:35:22;;;;;;;1.90;0.65;;;25.70;1.00;;;;;;5054230;28;20178;-83
2022/07/14 12:37:49;;;;;;;1.10;0.60;;;25.70;1.00;;;;;;5054524;28;20206;-83
2022/07/14 12:40:17;;;;;;;2.05;0.70;;;25.40;1.00;;;;;;5054525;28;20505;-84
2022/07/14 12:42:45;;;;;;;1.50;0.70;;;25.20;1.00;;;;;;5054262;28;20711;-89
2022/07/14 12:45:12;;;;;;;2.65;0.70;;;25.00;1.00;;;;;;5050435;28;20240;-86
2022/07/14 12:47:49;;;;;;;3.65;0.90;;;24.90;1.00;;;;;;5053812;28;20251;-84
2022/07/14 12:50:20;;;;;;;2.95;0.63;;;24.90;1.00;;;;;;5053655;28;20293;-87
2022/07/14 12:52:52;;;;;;;1.85;0.57;;;24.80;1.00;;;;;;5053719;28;20239;-84
2022/07/14 12:55:38;;;;;;;2.25;0.73;;;24.70;1.00;;;;;;5053680;28;20626;-84
2022/07/14 12:58:08;;;;;;;2.42;0.73;;;24.70;1.00;;;;;;5053538;28;20231;-84
2022/07/14 13:00:37;;;;;;;3.00;0.65;;;24.50;1.00;;;;;;5037936;28;20708;-83
2022/07/14 13:03:12;;;;;;;1.33;0.65;;;24.30;1.00;;;;;;5039717;28;20206;-85
2022/07/14 13:05:45;;;;;;;1.58;0.80;;;24.30;1.00;;;;;;5052849;28;20213;-81
2022/07/14 13:08:35;;;;;;;1.60;0.57;;;24.40;1.00;;;;;;5054497;28;20224;-87
2022/07/14 13:11:04;;;;;;;3.00;1.10;;;24.30;1.00;;;;;;5053367;28;20644;-83
2022/07/14 13:13:34;;;;;;;3.78;0.90;;;24.20;1.00;;;;;;5053554;28;20225;-82